Time;durP1;ratioP1;P1;durP2;ratioP2;P2;SDS_P1;SDS_P2;PMS_P1;PMS_P2;Temp;Humidity;BMP_temperature;BMP_pressure;BME280_temperature;BME280_humidity;BME280_pressure;Samples;Min_cycle;Max_cycle;Signal;HPM_P1;HPM_P2
2022/12/08 05:01:46;;;;;;;1999.90;999.90;;;0.90;99.90;;;;;;5349901;23;20055;-77
2022/12/08 05:04:11;;;;;;;1999.90;999.90;;;0.90;99.90;;;;;;4974602;28;20047;-76
2022/12/08 05:06:37;;;;;;;1999.90;999.90;;;0.90;99.90;;;;;;4974296;28;20114;-77
2022/12/08 05:09:02;;;;;;;1999.90;999.90;;;0.90;99.90;;;;;;4975754;28;20040;-77
2022/12/08 05:11:28;;;;;;;1999.90;999.90;;;1.00;99.90;;;;;;4973725;28;20045;-76
2022/12/08 05:13:53;;;;;;;1999.90;999.90;;;1.00;99.90;;;;;;4993161;23;20062;-77
2022/12/08 05:16:19;;;;;;;1999.90;999.90;;;1.00;99.90;;;;;;4995166;28;20052;-78
2022/12/08 05:18:44;;;;;;;1999.90;999.90;;;1.00;99.90;;;;;;4994820;28;20027;-78
2022/12/08 05:21:10;;;;;;;1999.90;999.90;;;1.00;99.90;;;;;;4993338;28;20038;-78
2022/12/08 05:23:36;;;;;;;1999.90;999.90;;;1.10;99.90;;;;;;4994819;28;20038;-78
2022/12/08 05:26:02;;;;;;;1999.90;999.90;;;1.10;99.90;;;;;;4993339;28;20055;-78
2022/12/08 05:28:27;;;;;;;1999.90;999.90;;;1.10;99.90;;;;;;4994863;28;20480;-77
2022/12/08 05:30:53;;;;;;;1999.90;999.90;;;1.10;99.90;;;;;;4994739;28;20038;-78
2022/12/08 05:33:18;;;;;;;1999.90;999.90;;;1.10;99.90;;;;;;4993602;28;20035;-78
2022/12/08 05:35:44;;;;;;;1999.90;999.90;;;1.20;99.90;;;;;;4994832;28;20039;-78
2022/12/08 05:38:10;;;;;;;1999.90;999.90;;;1.20;99.90;;;;;;4994796;28;20035;-77
2022/12/08 05:40:39;;;;;;;1999.90;999.90;;;1.20;99.90;;;;;;4994839;28;20764;-77
2022/12/08 05:43:05;;;;;;;1999.90;999.90;;;1.30;99.90;;;;;;4993470;28;20038;-77
2022/12/08 05:45:31;;;;;;;1999.90;999.90;;;1.30;99.90;;;;;;4994700;28;20054;-78
2022/12/08 05:47:57;;;;;;;1999.90;999.90;;;1.30;99.90;;;;;;4994590;28;20034;-78
2022/12/08 05:50:22;;;;;;;1999.90;999.90;;;1.30;99.90;;;;;;4994562;28;20039;-78
2022/12/08 05:52:48;;;;;;;1999.90;999.90;;;1.20;99.90;;;;;;4994301;28;20030;-77
2022/12/08 05:55:13;;;;;;;1999.90;999.90;;;1.20;99.90;;;;;;4994620;28;20035;-77
2022/12/08 05:57:39;;;;;;;1999.90;999.90;;;1.20;99.90;;;;;;4994858;28;20034;-78
2022/12/08 06:00:05;;;;;;;1999.90;999.90;;;1.30;99.90;;;;;;4997990;28;20540;-77
2022/12/08 06:02:31;;;;;;;1999.90;999.90;;;1.40;99.90;;;;;;4997423;28;20027;-78
2022/12/08 06:04:56;;;;;;;1999.90;999.90;;;1.30;99.90;;;;;;4996361;28;20049;-78
2022/12/08 06:07:21;;;;;;;1999.90;999.90;;;1.30;99.90;;;;;;4997802;28;20528;-78
2022/12/08 06:09:47;;;;;;;1999.90;999.90;;;1.40;99.90;;;;;;4997464;28;20046;-78
2022/12/08 06:12:13;;;;;;;1999.90;999.90;;;1.30;99.90;;;;;;4997793;28;20101;-78
2022/12/08 06:14:39;;;;;;;1999.90;999.90;;;1.30;99.90;;;;;;4997585;28;20039;-77
2022/12/08 06:17:04;;;;;;;1999.90;999.90;;;1.40;99.90;;;;;;4996339;28;20404;-78
2022/12/08 06:19:30;;;;;;;1999.90;999.90;;;1.40;99.90;;;;;;4997979;28;20030;-78
2022/12/08 06:21:55;;;;;;;1999.90;999.90;;;1.30;99.90;;;;;;4997727;28;20038;-78
2022/12/08 06:24:21;;;;;;;1999.90;999.90;;;1.40;99.90;;;;;;4997708;28;20396;-77
2022/12/08 06:26:47;;;;;;;1999.90;999.90;;;1.40;99.90;;;;;;4997877;28;20074;-78
2022/12/08 06:29:13;;;;;;;1999.90;999.90;;;1.40;99.90;;;;;;4998017;28;20471;-78
2022/12/08 06:31:39;;;;;;;1999.90;999.90;;;1.40;99.90;;;;;;4997600;28;20739;-78
2022/12/08 06:34:05;;;;;;;1999.90;999.90;;;1.40;99.90;;;;;;4998038;28;20034;-78
2022/12/08 06:36:31;;;;;;;1999.90;999.90;;;1.40;99.90;;;;;;4997813;28;20035;-78
2022/12/08 06:38:56;;;;;;;1999.90;999.90;;;1.40;99.90;;;;;;4997701;28;20519;-77
2022/12/08 06:41:22;;;;;;;1999.90;999.90;;;1.40;99.90;;;;;;4997710;28;20055;-77
2022/12/08 06:43:48;;;;;;;1999.90;999.90;;;1.40;99.90;;;;;;4997102;28;20035;-75
2022/12/08 06:46:16;;;;;;;1999.90;999.90;;;1.40;99.90;;;;;;4995856;28;20493;-76
2022/12/08 06:48:42;;;;;;;1999.90;999.90;;;1.30;99.90;;;;;;4995919;28;20027;-75
2022/12/08 06:51:16;;;;;;;1999.90;999.90;;;1.40;99.90;;;;;;4997126;28;20043;-76
2022/12/08 06:53:43;;;;;;;1999.90;999.90;;;1.40;99.90;;;;;;4997117;28;20110;-76
2022/12/08 06:56:10;;;;;;;1999.90;999.90;;;1.50;99.90;;;;;;4995830;28;20047;-77
2022/12/08 06:58:36;;;;;;;1999.90;999.90;;;1.50;99.90;;;;;;4997303;28;20023;-77
2022/12/08 07:01:07;;;;;;;1999.90;999.90;;;1.60;99.90;;;;;;4997300;28;20388;-77
2022/12/08 07:03:33;;;;;;;1999.90;999.90;;;1.60;99.90;;;;;;4997200;28;20035;-77
2022/12/08 07:05:58;;;;;;;1999.90;999.90;;;1.50;99.90;;;;;;4997326;28;20070;-77
2022/12/08 07:08:24;;;;;;;1999.90;999.90;;;1.60;99.90;;;;;;4996420;28;20035;-78
2022/12/08 07:10:49;;;;;;;1999.90;999.90;;;1.50;99.90;;;;;;4995533;28;20507;-78
2022/12/08 07:13:15;;;;;;;1999.90;999.90;;;1.60;99.90;;;;;;4997433;28;20046;-78
2022/12/08 07:15:40;;;;;;;1999.90;999.90;;;1.60;99.90;;;;;;4996832;28;20728;-76
2022/12/08 07:18:06;;;;;;;1999.90;999.90;;;1.60;99.90;;;;;;4996675;28;20477;-76
2022/12/08 07:20:31;;;;;;;1999.90;999.90;;;1.70;99.90;;;;;;4996805;28;20035;-76
2022/12/08 07:22:57;;;;;;;1999.90;999.90;;;1.70;99.90;;;;;;4995637;28;20034;-78
2022/12/08 07:25:22;;;;;;;1999.90;999.90;;;1.80;99.90;;;;;;4997465;28;20034;-78
2022/12/08 07:27:50;;;;;;;1999.90;999.90;;;1.80;99.90;;;;;;4997415;28;20031;-77
2022/12/08 07:30:16;;;;;;;1999.90;999.90;;;1.80;99.90;;;;;;4996960;28;20428;-78
2022/12/08 07:32:41;;;;;;;1999.90;999.90;;;1.80;99.90;;;;;;4997029;28;20534;-77
2022/12/08 07:35:08;;;;;;;1999.90;999.90;;;1.90;99.90;;;;;;4995436;28;20113;-78
2022/12/08 07:37:35;;;;;;;1999.90;999.90;;;1.90;99.90;;;;;;4997687;28;20493;-77
2022/12/08 07:40:00;;;;;;;1999.90;999.90;;;1.90;99.90;;;;;;4997337;28;20058;-78
2022/12/08 07:42:26;;;;;;;1999.90;999.90;;;1.80;99.90;;;;;;4997208;28;20089;-78
2022/12/08 07:44:51;;;;;;;1999.90;999.90;;;1.90;99.90;;;;;;4995411;28;20086;-78
2022/12/08 07:47:17;;;;;;;1999.90;999.90;;;1.90;99.90;;;;;;4995624;28;20477;-78
2022/12/08 07:49:42;;;;;;;1999.90;999.90;;;2.00;99.90;;;;;;4995515;28;20035;-78
2022/12/08 07:52:08;;;;;;;1999.90;999.90;;;2.00;99.90;;;;;;4996555;28;20070;-77
2022/12/08 07:54:33;;;;;;;1999.90;999.90;;;2.00;99.90;;;;;;4996744;28;20038;-77
2022/12/08 07:56:59;;;;;;;1999.90;999.90;;;2.10;99.90;;;;;;4996689;28;20049;-77
2022/12/08 07:59:25;;;;;;;1999.90;999.90;;;2.20;99.90;;;;;;4994898;28;20081;-78
2022/12/08 08:01:51;;;;;;;1999.90;999.90;;;2.30;99.90;;;;;;4995870;28;20031;-77
2022/12/08 08:04:16;;;;;;;1999.90;999.90;;;2.30;99.90;;;;;;4996198;28;20484;-78
2022/12/08 08:06:42;;;;;;;1999.90;999.90;;;2.40;99.90;;;;;;4996424;28;20039;-78
2022/12/08 08:09:09;;;;;;;1999.90;999.90;;;2.40;99.90;;;;;;4994871;28;20038;-78
2022/12/08 08:11:35;;;;;;;1999.90;999.90;;;2.50;99.90;;;;;;4996066;28;20061;-78
2022/12/08 08:14:00;;;;;;;1999.90;999.90;;;2.50;99.90;;;;;;4995487;28;20512;-78
2022/12/08 08:16:26;;;;;;;1999.90;999.90;;;2.50;99.90;;;;;;4996253;28;20382;-77
2022/12/08 08:18:52;;;;;;;1999.90;999.90;;;2.60;99.90;;;;;;4995977;28;20027;-78
2022/12/08 08:21:18;;;;;;;1999.90;999.90;;;2.70;99.90;;;;;;4995194;28;20038;-78
2022/12/08 08:23:44;;;;;;;1999.90;999.90;;;2.60;99.90;;;;;;4996949;28;20041;-77
2022/12/08 08:26:09;;;;;;;1999.90;999.90;;;2.70;99.90;;;;;;5000619;28;20038;-78
2022/12/08 08:28:35;;;;;;;1999.90;999.90;;;2.80;99.90;;;;;;4997412;28;20023;-79
2022/12/08 08:31:01;;;;;;;1999.90;999.90;;;2.90;99.90;;;;;;4995996;28;20051;-79
2022/12/08 08:33:27;;;;;;;1999.90;999.90;;;2.90;99.90;;;;;;4997984;28;20032;-78
2022/12/08 08:35:53;;;;;;;1999.90;999.90;;;2.90;99.90;;;;;;4996474;28;20035;-78
2022/12/08 08:38:32;;;;;;;1999.90;999.90;;;3.00;99.90;;;;;;4996472;28;20035;-78
2022/12/08 08:40:57;;;;;;;1999.90;999.90;;;3.00;99.90;;;;;;4994529;28;20121;-78
2022/12/08 08:43:29;;;;;;;1999.90;999.90;;;3.10;99.90;;;;;;4997085;28;20031;-79
2022/12/08 08:45:58;;;;;;;1999.90;999.90;;;3.10;99.90;;;;;;4996768;28;20042;-76
2022/12/08 08:48:26;;;;;;;1999.90;999.90;;;3.10;99.90;;;;;;4996193;28;20147;-77
2022/12/08 08:50:52;;;;;;;1999.90;999.90;;;3.10;99.90;;;;;;4995600;28;20039;-77
2022/12/08 08:53:18;;;;;;;1999.90;999.90;;;3.20;99.90;;;;;;4996230;28;20814;-78
2022/12/08 08:55:43;;;;;;;1999.90;999.90;;;3.20;99.90;;;;;;4997532;28;20041;-78
2022/12/08 08:58:09;;;;;;;1999.90;999.90;;;3.30;99.90;;;;;;4996298;28;20027;-77
2022/12/08 09:00:34;;;;;;;1999.90;999.90;;;3.30;99.90;;;;;;4996272;28;20038;-78
2022/12/08 09:03:00;;;;;;;1999.90;999.90;;;3.40;99.90;;;;;;4995617;28;20043;-75
2022/12/08 09:05:25;;;;;;;1999.90;999.90;;;3.40;99.90;;;;;;4995922;28;20045;-76
2022/12/08 09:07:51;;;;;;;1999.90;999.90;;;3.40;99.90;;;;;;4995828;28;20033;-75
2022/12/08 09:10:17;;;;;;;1999.90;999.90;;;3.50;99.90;;;;;;4994790;28;20042;-76
2022/12/08 09:12:42;;;;;;;1999.90;999.90;;;3.60;99.90;;;;;;4995356;28;20054;-76
2022/12/08 09:15:08;;;;;;;1999.90;999.90;;;3.70;99.90;;;;;;4994828;28;20413;-76
2022/12/08 09:17:34;;;;;;;1999.90;999.90;;;3.70;99.90;;;;;;4995659;28;20039;-77
2022/12/08 09:20:00;;;;;;;1999.90;999.90;;;3.70;99.90;;;;;;4994027;28;20046;-78
2022/12/08 09:22:25;;;;;;;1999.90;999.90;;;3.70;99.90;;;;;;4996031;28;20542;-80
2022/12/08 09:24:52;;;;;;;1999.90;999.90;;;3.80;99.90;;;;;;4995499;28;20065;-78
2022/12/08 09:27:17;;;;;;;1999.90;999.90;;;3.80;99.90;;;;;;4997655;28;20555;-78
2022/12/08 09:29:43;;;;;;;1999.90;999.90;;;3.80;99.90;;;;;;4995917;28;20043;-78
2022/12/08 09:32:09;;;;;;;1999.90;999.90;;;3.90;99.90;;;;;;4996872;28;20046;-79
2022/12/08 09:34:34;;;;;;;1999.90;999.90;;;4.00;99.90;;;;;;5002003;28;20031;-83
2022/12/08 09:37:00;;;;;;;1999.90;999.90;;;4.00;99.90;;;;;;5001640;28;20039;-82
2022/12/08 09:39:26;;;;;;;1999.90;999.90;;;4.20;99.90;;;;;;4998501;28;20807;-80
2022/12/08 09:42:05;;;;;;;1999.90;999.90;;;4.30;99.90;;;;;;4999094;28;20432;-78
2022/12/08 09:45:09;;;;;;;1999.90;999.90;;;4.20;99.90;;;;;;5007964;28;20066;-80
2022/12/08 09:48:01;;;;;;;1999.90;999.90;;;4.20;99.90;;;;;;5020553;28;20537;-80
2022/12/08 09:50:35;;;;;;;1999.90;999.90;;;4.30;99.90;;;;;;5019645;28;20061;-81
2022/12/08 09:53:10;;;;;;;1999.90;999.90;;;4.50;99.90;;;;;;5012063;28;20122;-80
2022/12/08 09:55:44;;;;;;;1999.90;999.90;;;4.60;99.90;;;;;;5000224;28;20070;-80
2022/12/08 09:58:20;;;;;;;1999.90;999.90;;;4.70;99.90;;;;;;4994444;28;20035;-82
2022/12/08 10:00:46;;;;;;;1999.90;999.90;;;4.70;99.90;;;;;;5001029;28;20051;-80
2022/12/08 10:03:12;;;;;;;1999.90;999.90;;;4.70;99.90;;;;;;4995198;28;20039;-81
2022/12/08 10:05:56;;;;;;;1999.90;999.90;;;4.70;99.90;;;;;;4980498;28;20043;-78
2022/12/08 10:08:31;;;;;;;1999.90;999.90;;;4.60;99.90;;;;;;4992566;28;20035;-79
2022/12/08 10:11:06;;;;;;;1999.90;999.90;;;4.50;99.90;;;;;;4985304;28;20835;-78
2022/12/08 10:13:45;;;;;;;1999.90;999.90;;;4.40;99.90;;;;;;4979410;28;20046;-79
2022/12/08 10:16:29;;;;;;;1999.90;999.90;;;4.40;99.90;;;;;;4979439;28;20046;-80
2022/12/08 10:19:10;;;;;;;1999.90;999.90;;;4.50;99.90;;;;;;4981413;28;20029;-78
2022/12/08 10:21:35;;;;;;;1999.90;999.90;;;4.70;99.90;;;;;;4981974;28;20039;-80
2022/12/08 10:24:12;;;;;;;1999.90;999.90;;;4.90;99.90;;;;;;4982287;28;20043;-80
2022/12/08 10:26:37;;;;;;;1999.90;999.90;;;4.80;99.90;;;;;;4982978;28;20035;-81
2022/12/08 10:29:03;;;;;;;1999.90;999.90;;;5.00;99.90;;;;;;4983322;28;20413;-79
2022/12/08 10:31:31;;;;;;;1999.90;999.90;;;5.00;99.90;;;;;;4982006;28;20051;-80
2022/12/08 10:33:59;;;;;;;1999.90;999.90;;;5.30;99.90;;;;;;4993265;28;20050;-81
2022/12/08 10:36:48;;;;;;;1999.90;999.90;;;5.40;99.90;;;;;;4986389;28;20058;-79
2022/12/08 10:39:29;;;;;;;1999.90;999.90;;;5.50;99.90;;;;;;4982587;28;20791;-79
2022/12/08 10:42:07;;;;;;;1999.90;999.90;;;5.90;99.90;;;;;;4994006;28;20505;-81
2022/12/08 10:44:40;;;;;;;1999.90;999.90;;;5.90;99.90;;;;;;5000037;28;20904;-87
2022/12/08 10:47:12;;;;;;;1999.90;999.90;;;5.70;99.90;;;;;;5002882;28;20031;-81
2022/12/08 10:49:38;;;;;;;1999.90;999.90;;;5.60;99.90;;;;;;4999843;28;20113;-83
2022/12/08 10:52:21;;;;;;;1999.90;999.90;;;5.70;99.90;;;;;;4995537;28;20520;-79
2022/12/08 10:54:52;;;;;;;1999.90;999.90;;;5.80;99.90;;;;;;4981371;28;20038;-84
2022/12/08 10:57:24;;;;;;;1999.90;999.90;;;5.80;99.90;;;;;;4994609;28;20500;-80
2022/12/08 10:59:52;;;;;;;1999.90;999.90;;;5.80;99.90;;;;;;4998828;28;20043;-79
2022/12/08 11:02:19;;;;;;;1999.90;999.90;;;5.80;99.90;;;;;;4990805;28;20043;-80
2022/12/08 11:04:45;;;;;;;1999.90;999.90;;;5.90;99.90;;;;;;5003552;28;20102;-80
2022/12/08 11:07:19;;;;;;;1999.90;999.90;;;5.70;99.90;;;;;;4989770;28;20091;-82
2022/12/08 11:09:57;;;;;;;1999.90;999.90;;;5.60;99.90;;;;;;4978509;28;20497;-79
2022/12/08 11:12:27;;;;;;;1999.90;999.90;;;5.60;99.90;;;;;;4981059;28;20103;-80
2022/12/08 11:15:02;;;;;;;1999.90;999.90;;;5.60;99.90;;;;;;4980214;28;20031;-79
2022/12/08 11:17:34;;;;;;;1999.90;999.90;;;5.60;99.90;;;;;;4981420;28;20066;-80
2022/12/08 11:20:05;;;;;;;1999.90;999.90;;;5.60;99.90;;;;;;4979838;28;20516;-79
2022/12/08 11:22:36;;;;;;;1999.90;999.90;;;5.60;99.90;;;;;;4982052;28;20036;-84
2022/12/08 11:25:20;;;;;;;1999.90;999.90;;;5.70;99.90;;;;;;4979432;28;20035;-79
2022/12/08 11:27:51;;;;;;;1999.90;999.90;;;5.70;99.90;;;;;;5011526;23;20054;-79
2022/12/08 11:30:25;;;;;;;1999.90;999.90;;;5.90;99.90;;;;;;5004310;28;20494;-80
2022/12/08 11:33:11;;;;;;;1999.90;999.90;;;6.00;99.90;;;;;;4996580;28;20043;-81
2022/12/08 11:35:40;;;;;;;1999.90;999.90;;;6.00;99.90;;;;;;4997755;28;20097;-83
2022/12/08 11:38:15;;;;;;;1999.90;999.90;;;6.10;99.90;;;;;;4995933;28;20046;-83
2022/12/08 11:40:43;;;;;;;1999.90;999.90;;;5.90;99.90;;;;;;4994394;28;20031;-83
2022/12/08 11:43:27;;;;;;;1999.90;999.90;;;5.70;99.90;;;;;;4977396;28;20045;-83
2022/12/08 11:46:02;;;;;;;1999.90;999.90;;;5.70;99.90;;;;;;4979578;28;20122;-82
2022/12/08 11:48:45;;;;;;;1999.90;999.90;;;5.60;99.90;;;;;;4976255;28;20505;-84
2022/12/08 11:51:16;;;;;;;1999.90;999.90;;;5.60;99.90;;;;;;4958560;28;20048;-80
2022/12/08 11:53:48;;;;;;;1999.90;999.90;;;5.50;99.90;;;;;;4957393;28;20493;-82
2022/12/08 11:56:36;;;;;;;1999.90;999.90;;;5.30;99.90;;;;;;4956509;28;20046;-80
2022/12/08 11:59:17;;;;;;;1999.90;999.90;;;5.30;99.90;;;;;;4956814;28;20040;-77
2022/12/08 12:01:43;;;;;;;1999.90;999.90;;;5.30;99.90;;;;;;4964498;28;20050;-78
2022/12/08 12:04:31;;;;;;;1999.90;999.90;;;5.30;99.90;;;;;;4975041;28;20038;-79
2022/12/08 12:07:16;;;;;;;1999.90;999.90;;;5.20;99.90;;;;;;4976825;28;20081;-78
2022/12/08 12:09:56;;;;;;;1999.90;999.90;;;5.20;99.90;;;;;;4975246;28;20042;-78
2022/12/08 12:12:50;;;;;;;1999.90;999.90;;;5.10;99.90;;;;;;4975373;28;20076;-79
2022/12/08 12:15:31;;;;;;;1999.90;999.90;;;5.10;99.90;;;;;;4980871;28;20083;-79
2022/12/08 12:18:09;;;;;;;1999.90;999.90;;;5.10;99.90;;;;;;4983821;28;20065;-79
2022/12/08 12:20:58;;;;;;;1999.90;999.90;;;5.00;99.90;;;;;;4977463;28;20083;-78
2022/12/08 12:23:35;;;;;;;1999.90;999.90;;;5.00;99.90;;;;;;4978256;28;20035;-78
2022/12/08 12:26:04;;;;;;;1999.90;999.90;;;5.00;99.90;;;;;;4977212;28;20031;-78
2022/12/08 12:28:42;;;;;;;1999.90;999.90;;;5.00;99.90;;;;;;4976885;28;20509;-78
2022/12/08 12:31:13;;;;;;;1999.90;999.90;;;5.00;99.90;;;;;;4978319;28;20493;-78
2022/12/08 12:33:42;;;;;;;1999.90;999.90;;;5.00;99.90;;;;;;4996610;28;20031;-78
2022/12/08 12:36:09;;;;;;;1999.90;999.90;;;5.00;99.90;;;;;;4995937;28;20447;-77
2022/12/08 12:41:40;;;;;;;1999.90;999.90;;;5.00;99.90;;;;;;4989819;28;20038;-78
2022/12/08 12:44:11;;;;;;;1999.90;999.90;;;5.10;99.90;;;;;;4992808;28;20031;-78
2022/12/08 12:46:39;;;;;;;1999.90;999.90;;;5.00;99.90;;;;;;4974999;28;20476;-78
2022/12/08 12:49:39;;;;;;;1999.90;999.90;;;5.00;99.90;;;;;;4976356;28;20580;-78
2022/12/08 12:52:30;;;;;;;1999.90;999.90;;;5.00;99.90;;;;;;4992386;28;20044;-78
2022/12/08 12:54:56;;;;;;;1999.90;999.90;;;5.00;99.90;;;;;;4983490;28;20555;-77
2022/12/08 12:57:24;;;;;;;1999.90;999.90;;;5.00;99.90;;;;;;4995319;28;20038;-78
2022/12/08 12:59:50;;;;;;;1999.90;999.90;;;5.00;99.90;;;;;;4995537;28;20134;-78
2022/12/08 13:02:21;;;;;;;1999.90;999.90;;;4.90;99.90;;;;;;4994706;28;20045;-78
2022/12/08 13:05:09;;;;;;;1999.90;999.90;;;4.90;99.90;;;;;;4983127;28;20552;-79
2022/12/08 13:07:58;;;;;;;1999.90;999.90;;;4.90;99.90;;;;;;4976031;28;20325;-80
2022/12/08 13:10:36;;;;;;;1999.90;999.90;;;5.00;99.90;;;;;;4956184;28;20088;-78
2022/12/08 13:13:15;;;;;;;1999.90;999.90;;;5.10;99.90;;;;;;4955278;28;20469;-79
2022/12/08 13:15:55;;;;;;;1999.90;999.90;;;5.10;99.90;;;;;;4955427;28;20047;-79
2022/12/08 13:18:25;;;;;;;1999.90;999.90;;;5.20;99.90;;;;;;4956766;28;20055;-79
2022/12/08 13:20:55;;;;;;;1999.90;999.90;;;5.10;99.90;;;;;;4957818;28;20039;-80
2022/12/08 13:23:28;;;;;;;1999.90;999.90;;;5.20;99.90;;;;;;4958672;28;20028;-78
2022/12/08 13:26:18;;;;;;;1999.90;999.90;;;5.20;99.90;;;;;;4956709;28;20476;-79
2022/12/08 13:29:00;;;;;;;1999.90;999.90;;;5.20;99.90;;;;;;4955394;28;20040;-78
2022/12/08 13:31:50;;;;;;;1999.90;999.90;;;5.30;99.90;;;;;;4954152;28;20040;-78
2022/12/08 13:34:19;;;;;;;1999.90;999.90;;;5.20;99.90;;;;;;4956186;28;20119;-77
2022/12/08 13:37:17;;;;;;;1999.90;999.90;;;5.20;99.90;;;;;;4955927;28;20482;-77
2022/12/08 13:39:54;;;;;;;1999.90;999.90;;;5.10;99.90;;;;;;4956060;28;20039;-78
2022/12/08 13:42:46;;;;;;;1999.90;999.90;;;5.10;99.90;;;;;;4956273;28;20118;-79
2022/12/08 13:45:12;;;;;;;1999.90;999.90;;;5.10;99.90;;;;;;4955612;28;20043;-78
2022/12/08 13:47:59;;;;;;;1999.90;999.90;;;5.20;99.90;;;;;;4963637;28;20038;-78
2022/12/08 13:50:30;;;;;;;1999.90;999.90;;;5.20;99.90;;;;;;4973016;28;20417;-80
2022/12/08 13:53:15;;;;;;;1999.90;999.90;;;5.00;99.90;;;;;;4974540;28;20027;-78
2022/12/08 13:55:48;;;;;;;1999.90;999.90;;;5.00;99.90;;;;;;4977536;28;20911;-77
2022/12/08 13:58:19;;;;;;;1999.90;999.90;;;5.00;99.90;;;;;;4975304;28;20046;-78
2022/12/08 14:01:14;;;;;;;1999.90;999.90;;;5.00;99.90;;;;;;4973982;28;20062;-79
2022/12/08 14:03:51;;;;;;;1999.90;999.90;;;5.00;99.90;;;;;;4975309;28;20063;-77
2022/12/08 14:06:44;;;;;;;1999.90;999.90;;;4.90;99.90;;;;;;4974861;28;20102;-77
2022/12/08 14:09:21;;;;;;;1999.90;999.90;;;4.90;99.90;;;;;;4957828;28;20056;-79
2022/12/08 14:12:02;;;;;;;1999.90;999.90;;;4.90;99.90;;;;;;4960986;28;20569;-78
2022/12/08 14:14:33;;;;;;;1999.90;999.90;;;4.90;99.90;;;;;;4989271;28;20038;-77
2022/12/08 14:17:03;;;;;;;1999.90;999.90;;;4.90;99.90;;;;;;4989933;28;20063;-78
2022/12/08 14:19:31;;;;;;;1999.90;999.90;;;4.80;99.90;;;;;;4999001;28;20126;-78
2022/12/08 14:21:58;;;;;;;1999.90;999.90;;;4.80;99.90;;;;;;4996488;28;20039;-77
2022/12/08 14:24:29;;;;;;;1999.90;999.90;;;4.80;99.90;;;;;;4978268;28;20042;-85
2022/12/08 14:26:58;;;;;;;1999.90;999.90;;;4.70;99.90;;;;;;4979874;28;20567;-79
2022/12/08 14:29:38;;;;;;;1999.90;999.90;;;4.70;99.90;;;;;;4978881;28;20891;-79
2022/12/08 14:32:17;;;;;;;1999.90;999.90;;;4.60;99.90;;;;;;4977914;28;20046;-78
2022/12/08 14:34:42;;;;;;;1999.90;999.90;;;4.60;99.90;;;;;;4975706;28;20044;-77
2022/12/08 14:37:12;;;;;;;1999.90;999.90;;;4.50;99.90;;;;;;4983241;28;20039;-77
2022/12/08 14:39:38;;;;;;;1999.90;999.90;;;4.50;99.90;;;;;;4986270;28;20036;-76
2022/12/08 14:42:05;;;;;;;1999.90;999.90;;;4.50;99.90;;;;;;4982900;28;20047;-81
2022/12/08 14:44:33;;;;;;;1999.90;999.90;;;4.50;99.90;;;;;;4997657;28;20109;-78
2022/12/08 14:47:08;;;;;;;1999.90;999.90;;;4.40;99.90;;;;;;4995637;28;20105;-78
2022/12/08 14:49:36;;;;;;;1999.90;999.90;;;4.40;99.90;;;;;;4993867;28;20034;-78
2022/12/08 14:52:07;;;;;;;1999.90;999.90;;;4.30;99.90;;;;;;4992061;28;20427;-78
2022/12/08 14:54:33;;;;;;;1999.90;999.90;;;4.30;99.90;;;;;;4976328;28;20039;-78
2022/12/08 14:57:00;;;;;;;1999.90;999.90;;;4.30;99.90;;;;;;4987011;28;20039;-78
2022/12/08 14:59:30;;;;;;;1999.90;999.90;;;4.30;99.90;;;;;;4996073;28;20039;-78
2022/12/08 15:02:09;;;;;;;1999.90;999.90;;;4.20;99.90;;;;;;4997556;28;20066;-79
2022/12/08 15:04:40;;;;;;;1999.90;999.90;;;4.20;99.90;;;;;;4998852;28;20039;-78
2022/12/08 15:07:09;;;;;;;1999.90;999.90;;;4.10;99.90;;;;;;5001892;28;20102;-78
2022/12/08 15:09:37;;;;;;;1999.90;999.90;;;4.00;99.90;;;;;;4988025;28;20038;-77
2022/12/08 15:12:12;;;;;;;1999.90;999.90;;;4.00;99.90;;;;;;4980780;28;20479;-78
2022/12/08 15:15:00;;;;;;;1999.90;999.90;;;3.90;99.90;;;;;;4990303;28;20055;-77
2022/12/08 15:17:34;;;;;;;1999.90;999.90;;;3.90;99.90;;;;;;4976635;28;20039;-78
2022/12/08 15:20:01;;;;;;;1999.90;999.90;;;3.80;99.90;;;;;;4977310;28;20070;-77
2022/12/08 15:22:28;;;;;;;1999.90;999.90;;;3.80;99.90;;;;;;4983944;28;20043;-77
2022/12/08 15:24:54;;;;;;;1999.90;999.90;;;3.70;99.90;;;;;;4996055;28;20039;-77
2022/12/08 15:27:23;;;;;;;1999.90;999.90;;;3.70;99.90;;;;;;4997618;28;20043;-77
2022/12/08 15:29:49;;;;;;;1999.90;999.90;;;3.80;99.90;;;;;;4998629;28;20059;-77
2022/12/08 15:32:21;;;;;;;1999.90;999.90;;;3.70;99.90;;;;;;5007786;28;20039;-77
2022/12/08 15:34:47;;;;;;;1999.90;999.90;;;3.70;99.90;;;;;;5000211;28;20030;-78
2022/12/08 15:37:21;;;;;;;1999.90;999.90;;;3.70;99.90;;;;;;4995678;28;20043;-78
2022/12/08 15:39:47;;;;;;;1999.90;999.90;;;3.70;99.90;;;;;;4977032;28;20474;-78
2022/12/08 15:42:13;;;;;;;1999.90;999.90;;;3.70;99.90;;;;;;4986552;28;20045;-78
2022/12/08 15:44:39;;;;;;;1999.90;999.90;;;3.70;99.90;;;;;;4986403;28;20388;-77
2022/12/08 15:47:05;;;;;;;1999.90;999.90;;;3.70;99.90;;;;;;4982940;28;20036;-78
2022/12/08 15:49:31;;;;;;;1999.90;999.90;;;3.70;99.90;;;;;;4975222;28;20035;-77
2022/12/08 15:51:57;;;;;;;1999.90;999.90;;;3.70;99.90;;;;;;4979074;28;20062;-78
2022/12/08 15:54:22;;;;;;;1999.90;999.90;;;3.70;99.90;;;;;;4998079;28;20042;-78
2022/12/08 15:56:55;;;;;;;1999.90;999.90;;;3.70;99.90;;;;;;4997246;28;20110;-77
2022/12/08 15:59:24;;;;;;;1999.90;999.90;;;3.70;99.90;;;;;;4996131;28;20031;-77
2022/12/08 16:01:50;;;;;;;1999.90;999.90;;;3.60;99.90;;;;;;4982249;28;20049;-80
2022/12/08 16:04:20;;;;;;;1999.90;999.90;;;3.60;99.90;;;;;;4980375;28;20043;-79
2022/12/08 16:06:49;;;;;;;1999.90;999.90;;;3.70;99.90;;;;;;4979625;28;20121;-78
2022/12/08 16:09:22;;;;;;;1999.90;999.90;;;3.60;99.90;;;;;;4980575;28;20032;-79
2022/12/08 16:14:32;;;;;;;1999.90;999.90;;;3.60;99.90;;;;;;4983702;28;20039;-82
2022/12/08 16:16:57;;;;;;;1999.90;999.90;;;3.60;99.90;;;;;;4980630;28;20118;-79
2022/12/08 16:19:23;;;;;;;1999.90;999.90;;;3.60;99.90;;;;;;4978995;28;20039;-78
2022/12/08 16:21:48;;;;;;;1999.90;999.90;;;3.60;99.90;;;;;;4979898;28;20058;-78
2022/12/08 16:24:14;;;;;;;1999.90;999.90;;;3.60;99.90;;;;;;5000887;28;20041;-80
2022/12/08 16:26:40;;;;;;;1999.90;999.90;;;3.60;99.90;;;;;;4989220;28;20257;-81
2022/12/08 16:29:06;;;;;;;1999.90;999.90;;;3.60;99.90;;;;;;4985944;28;20046;-80
2022/12/08 16:31:31;;;;;;;1999.90;999.90;;;3.60;99.90;;;;;;4995810;28;20420;-78
2022/12/08 16:33:57;;;;;;;1999.90;999.90;;;3.60;99.90;;;;;;4985433;28;20031;-79
2022/12/08 16:36:22;;;;;;;1999.90;999.90;;;3.60;99.90;;;;;;4984667;28;20071;-80
2022/12/08 16:38:48;;;;;;;1999.90;999.90;;;3.60;99.90;;;;;;4986654;28;20446;-80
2022/12/08 16:44:04;;;;;;;1999.90;999.90;;;3.60;99.90;;;;;;4987966;28;20096;-80
2022/12/08 16:46:29;;;;;;;1999.90;999.90;;;3.70;99.90;;;;;;4986252;28;20039;-80
2022/12/08 16:48:57;;;;;;;1999.90;999.90;;;3.70;99.90;;;;;;4983889;28;20066;-79
2022/12/08 16:51:23;;;;;;;1999.90;999.90;;;3.60;99.90;;;;;;4978669;28;20087;-78
2022/12/08 16:53:49;;;;;;;1999.90;999.90;;;3.60;99.90;;;;;;4995014;28;20031;-78
2022/12/08 16:56:20;;;;;;;1999.90;999.90;;;3.60;99.90;;;;;;4985618;28;20038;-79
2022/12/08 16:58:46;;;;;;;1999.90;999.90;;;3.60;99.90;;;;;;4998796;28;20027;-78
2022/12/08 17:01:14;;;;;;;1999.90;999.90;;;3.50;99.90;;;;;;4997310;28;20050;-78
2022/12/08 17:03:40;;;;;;;1999.90;999.90;;;3.50;99.90;;;;;;4981522;28;20074;-80
2022/12/08 17:06:14;;;;;;;1999.90;999.90;;;3.50;99.90;;;;;;4978149;28;20035;-78
2022/12/08 17:08:40;;;;;;;1999.90;999.90;;;3.50;99.90;;;;;;4966601;28;20122;-80
2022/12/08 17:11:06;;;;;;;1999.90;999.90;;;3.40;99.90;;;;;;4980706;28;20134;-79
2022/12/08 17:13:35;;;;;;;1999.90;999.90;;;3.40;99.90;;;;;;4980079;28;20039;-81
2022/12/08 17:16:02;;;;;;;1999.90;999.90;;;3.40;99.90;;;;;;4981474;28;20039;-81
2022/12/08 17:18:28;;;;;;;1999.90;999.90;;;3.40;99.90;;;;;;4976231;28;20114;-78
2022/12/08 17:20:53;;;;;;;1999.90;999.90;;;3.50;99.90;;;;;;4975320;28;20126;-77
2022/12/08 17:23:19;;;;;;;1999.90;999.90;;;3.50;99.90;;;;;;4979817;28;20107;-78
2022/12/08 17:25:58;;;;;;;1999.90;999.90;;;3.40;99.90;;;;;;4978772;28;20047;-78
2022/12/08 17:28:24;;;;;;;1999.90;999.90;;;3.50;99.90;;;;;;4977257;28;20206;-79
2022/12/08 17:30:50;;;;;;;1999.90;999.90;;;3.50;99.90;;;;;;4977315;28;20110;-79
2022/12/08 17:33:15;;;;;;;1999.90;999.90;;;3.50;99.90;;;;;;4980180;28;20035;-79